No particular awareness of the weather is required.    There are no Weather-warnings


Meteo18 Weather Cam more information Meteo18 Weather Cam


Thunder radar more information blitzortung!


Rain radar more information rain snow radar


Visit our other weather sites:

Template documentation
and downloads

And another site



Weather Underground History page Text

Daily Summary for February 2, 2017 Units:  Both    English   Metric
« Previous Day
Next Day »
Daily Weekly Monthly Yearly Custom
  High: Low: Average:
Temperature: 59.7 °F /  15.4 °C 43.2 °F /  6.2 °C 49.5 °F /  9.7 °C
Dew Point: 50 °F /  10.0 °C 40.6 °F /  4.8 °C 45.3 °F /  7.4 °C
Humidity: 94 % 68 % 86 %
Wind Speed: 18 mph /  29.0 km/h - 2.7 mph /  4.3 km/h
Wind Gust: 21 mph /  33.8 km/h - -
Wind:- - South
Pressure: 29.9 in /  1012.4 hPa 29.7 in /  1004.3 hPa -
Precipitation: 0.1 in /  2.5 mm    
Historical Graphs
 
 
Tabular Data for February 2, 2017
Time Temperature Dew Point Pressure Wind Wind Speed Wind Gust Humidity Rainfall Rate (Hourly)
00:02 45.9 °F /  7.7 °C 43.7 °F /  6.5 °C 29.9 in /  1012.4 hPa Calm   1 mph /  1.6 km/h 92 % 0 in /  0.0 mm
00:07 45.9 °F /  7.7 °C 43.7 °F /  6.5 °C 29.9 in /  1012.4 hPa Calm   1 mph /  1.6 km/h 92 % 0 in /  0.0 mm
00:12 45.9 °F /  7.7 °C 43.7 °F /  6.5 °C 29.9 in /  1012.4 hPa Calm   1 mph /  1.6 km/h 92 % 0 in /  0.0 mm
00:17 45.9 °F /  7.7 °C 43.9 °F /  6.6 °C 29.9 in /  1012.4 hPa Calm   1 mph /  1.6 km/h 93 % 0 in /  0.0 mm
00:22 45.7 °F /  7.6 °C 43.5 °F /  6.4 °C 29.9 in /  1012.4 hPa SW 1 mph /  1.6 km/h   92 % 0 in /  0.0 mm
00:27 45.5 °F /  7.5 °C 43.9 °F /  6.6 °C 29.9 in /  1012.4 hPa Calm   1 mph /  1.6 km/h 94 % 0 in /  0.0 mm
00:32 45.9 °F /  7.7 °C 44.2 °F /  6.8 °C 29.9 in /  1012.4 hPa Calm   1 mph /  1.6 km/h 94 % 0 in /  0.0 mm
00:37 45.3 °F /  7.4 °C 43.2 °F /  6.2 °C 29.9 in /  1012.4 hPa Calm   1 mph /  1.6 km/h 92 % 0 in /  0.0 mm
00:42 45.5 °F /  7.5 °C 43.9 °F /  6.6 °C 29.9 in /  1012.4 hPa Calm   1 mph /  1.6 km/h 94 % 0 in /  0.0 mm
00:47 45.7 °F /  7.6 °C 44.1 °F /  6.7 °C 29.9 in /  1012.4 hPa Calm   1 mph /  1.6 km/h 94 % 0 in /  0.0 mm
00:52 45.7 °F /  7.6 °C 44.1 °F /  6.7 °C 29.9 in /  1012.1 hPa Calm   3 mph /  4.8 km/h 94 % 0 in /  0.0 mm
00:57 45.9 °F /  7.7 °C 44.2 °F /  6.8 °C 29.9 in /  1012.1 hPa SW 1 mph /  1.6 km/h 3 mph /  4.8 km/h 94 % 0 in /  0.0 mm
01:02 45.9 °F /  7.7 °C 44.2 °F /  6.8 °C 29.9 in /  1012.1 hPa SW 1 mph /  1.6 km/h 3 mph /  4.8 km/h 94 % 0 in /  0.0 mm
01:07 46 °F /  7.8 °C 44.4 °F /  6.9 °C 29.9 in /  1012.1 hPa Calm   2 mph /  3.2 km/h 94 % 0 in /  0.0 mm
01:12 46.2 °F /  7.9 °C 44.6 °F /  7.0 °C 29.9 in /  1012.1 hPa Calm   2 mph /  3.2 km/h 94 % 0 in /  0.0 mm
01:17 46.2 °F /  7.9 °C 44.6 °F /  7.0 °C 29.9 in /  1012.1 hPa Calm   2 mph /  3.2 km/h 94 % 0 in /  0.0 mm
01:22 46.2 °F /  7.9 °C 44.6 °F /  7.0 °C 29.9 in /  1012.1 hPa Calm   1 mph /  1.6 km/h 94 % 0 in /  0.0 mm
01:27 46.2 °F /  7.9 °C 44.2 °F /  6.8 °C 29.9 in /  1011.7 hPa Calm   1 mph /  1.6 km/h 93 % 0 in /  0.0 mm
01:32 46.2 °F /  7.9 °C 44.2 °F /  6.8 °C 29.9 in /  1011.7 hPa Calm   1 mph /  1.6 km/h 93 % 0 in /  0.0 mm
01:37 46 °F /  7.8 °C 44.1 °F /  6.7 °C 29.9 in /  1011.7 hPa Calm   1 mph /  1.6 km/h 93 % 0 in /  0.0 mm
01:42 45.7 °F /  7.6 °C 43.7 °F /  6.5 °C 29.9 in /  1011.7 hPa Calm   1 mph /  1.6 km/h 93 % 0 in /  0.0 mm
01:47 45.7 °F /  7.6 °C 44.1 °F /  6.7 °C 29.9 in /  1011.4 hPa Calm   1 mph /  1.6 km/h 94 % 0 in /  0.0 mm
01:52 45.7 °F /  7.6 °C 44.1 °F /  6.7 °C 29.9 in /  1011.4 hPa Calm   1 mph /  1.6 km/h 94 % 0 in /  0.0 mm
01:57 45.9 °F /  7.7 °C 44.2 °F /  6.8 °C 29.9 in /  1011.7 hPa Calm   1 mph /  1.6 km/h 94 % 0 in /  0.0 mm
02:02 45.9 °F /  7.7 °C 43.9 °F /  6.6 °C 29.9 in /  1011.4 hPa SW 1 mph /  1.6 km/h 1 mph /  1.6 km/h 93 % 0 in /  0.0 mm
02:07 45.1 °F /  7.3 °C 43 °F /  6.1 °C 29.9 in /  1011.4 hPa Calm   1 mph /  1.6 km/h 92 % 0 in /  0.0 mm
02:12 45.1 °F /  7.3 °C 43.5 °F /  6.4 °C 29.9 in /  1011.4 hPa Calm   1 mph /  1.6 km/h 94 % 0 in /  0.0 mm
02:17 45.3 °F /  7.4 °C 43.7 °F /  6.5 °C 29.9 in /  1011.4 hPa Calm   1 mph /  1.6 km/h 94 % 0 in /  0.0 mm
02:22 45.5 °F /  7.5 °C 43.9 °F /  6.6 °C 29.9 in /  1011.4 hPa Calm   1 mph /  1.6 km/h 94 % 0 in /  0.0 mm
02:32 46 °F /  7.8 °C 44.1 °F /  6.7 °C 29.9 in /  1011.4 hPa Calm     93 % 0 in /  0.0 mm
02:37 46 °F /  7.8 °C 43.9 °F /  6.6 °C 29.9 in /  1011.1 hPa Calm   2 mph /  3.2 km/h 92 % 0 in /  0.0 mm
02:42 46 °F /  7.8 °C 43.5 °F /  6.4 °C 29.9 in /  1011.1 hPa Calm   2 mph /  3.2 km/h 91 % 0 in /  0.0 mm
02:47 45.7 °F /  7.6 °C 43.5 °F /  6.4 °C 29.9 in /  1011.1 hPa Calm   1 mph /  1.6 km/h 92 % 0 in /  0.0 mm
02:52 45.7 °F /  7.6 °C 43.5 °F /  6.4 °C 29.9 in /  1011.1 hPa Calm     92 % 0 in /  0.0 mm
02:57 45.7 °F /  7.6 °C 43.5 °F /  6.4 °C 29.9 in /  1011.1 hPa Calm     92 % 0 in /  0.0 mm
03:02 45.1 °F /  7.3 °C 42.6 °F /  5.9 °C 29.9 in /  1011.1 hPa Calm     91 % 0 in /  0.0 mm
03:07 45.3 °F /  7.4 °C 43.3 °F /  6.3 °C 29.8 in /  1010.7 hPa Calm     93 % 0 in /  0.0 mm
03:12 45.3 °F /  7.4 °C 43.2 °F /  6.2 °C 29.8 in /  1010.7 hPa Calm     92 % 0 in /  0.0 mm
03:17 45.1 °F /  7.3 °C 43 °F /  6.1 °C 29.8 in /  1010.7 hPa Calm     92 % 0 in /  0.0 mm
03:22 45 °F /  7.2 °C 42.4 °F /  5.8 °C 29.8 in /  1010.7 hPa Calm     91 % 0 in /  0.0 mm
03:27 44.8 °F /  7.1 °C 42.3 °F /  5.7 °C 29.8 in /  1010.7 hPa Calm     91 % 0 in /  0.0 mm
03:32 45 °F /  7.2 °C 42.8 °F /  6.0 °C 29.8 in /  1010.7 hPa Calm   1 mph /  1.6 km/h 92 % 0 in /  0.0 mm
03:37 45.1 °F /  7.3 °C 42.6 °F /  5.9 °C 29.8 in /  1010.4 hPa Calm   1 mph /  1.6 km/h 91 % 0 in /  0.0 mm
03:42 45 °F /  7.2 °C 42.4 °F /  5.8 °C 29.8 in /  1010.4 hPa Calm   1 mph /  1.6 km/h 91 % 0 in /  0.0 mm
03:47 45 °F /  7.2 °C 42.4 °F /  5.8 °C 29.8 in /  1010.4 hPa Calm   3 mph /  4.8 km/h 91 % 0 in /  0.0 mm
03:52 45 °F /  7.2 °C 42.4 °F /  5.8 °C 29.8 in /  1010.0 hPa Calm   3 mph /  4.8 km/h 91 % 0 in /  0.0 mm
03:57 44.8 °F /  7.1 °C 42.3 °F /  5.7 °C 29.8 in /  1010.0 hPa Calm   3 mph /  4.8 km/h 91 % 0 in /  0.0 mm
04:02 44.8 °F /  7.1 °C 42.3 °F /  5.7 °C 29.8 in /  1010.0 hPa Calm     91 % 0 in /  0.0 mm
04:07 44.4 °F /  6.9 °C 41.9 °F /  5.5 °C 29.8 in /  1010.0 hPa Calm     91 % 0 in /  0.0 mm
04:12 44.6 °F /  7.0 °C 42.1 °F /  5.6 °C 29.8 in /  1010.0 hPa Calm     91 % 0 in /  0.0 mm
04:17 44.6 °F /  7.0 °C 42.1 °F /  5.6 °C 29.8 in /  1010.0 hPa Calm     91 % 0 in /  0.0 mm
04:22 44.6 °F /  7.0 °C 42.1 °F /  5.6 °C 29.8 in /  1010.0 hPa Calm     91 % 0 in /  0.0 mm
04:27 44.8 °F /  7.1 °C 42.3 °F /  5.7 °C 29.8 in /  1009.7 hPa Calm     91 % 0 in /  0.0 mm
04:32 44.8 °F /  7.1 °C 42.1 °F /  5.6 °C 29.8 in /  1009.7 hPa Calm     90 % 0 in /  0.0 mm
04:42 44.4 °F /  6.9 °C 41.7 °F /  5.4 °C 29.8 in /  1009.7 hPa Calm     90 % 0 in /  0.0 mm
04:47 44.4 °F /  6.9 °C 41.7 °F /  5.4 °C 29.8 in /  1009.7 hPa Calm     90 % 0 in /  0.0 mm
04:52 44.4 °F /  6.9 °C 41.7 °F /  5.4 °C 29.8 in /  1010.0 hPa Calm     90 % 0 in /  0.0 mm
04:57 44.2 °F /  6.8 °C 41.5 °F /  5.3 °C 29.8 in /  1009.7 hPa Calm     90 % 0 in /  0.0 mm
05:02 44.2 °F /  6.8 °C 41.7 °F /  5.4 °C 29.8 in /  1009.7 hPa Calm     91 % 0 in /  0.0 mm
05:07 44.2 °F /  6.8 °C 41.7 °F /  5.4 °C 29.8 in /  1009.7 hPa Calm     91 % 0 in /  0.0 mm
05:12 44.4 °F /  6.9 °C 41.9 °F /  5.5 °C 29.8 in /  1009.7 hPa Calm     91 % 0 in /  0.0 mm
05:17 44.8 °F /  7.1 °C 42.1 °F /  5.6 °C 29.8 in /  1009.4 hPa Calm     90 % 0 in /  0.0 mm
05:22 44.8 °F /  7.1 °C 41.7 °F /  5.4 °C 29.8 in /  1009.4 hPa Calm     89 % 0 in /  0.0 mm
05:32 44.4 °F /  6.9 °C 41.7 °F /  5.4 °C 29.8 in /  1009.4 hPa Calm     90 % 0 in /  0.0 mm
05:37 44.4 °F /  6.9 °C 41.7 °F /  5.4 °C 29.8 in /  1009.4 hPa Calm     90 % 0 in /  0.0 mm
05:42 44.4 °F /  6.9 °C 41.4 °F /  5.2 °C 29.8 in /  1009.4 hPa Calm     89 % 0 in /  0.0 mm
05:47 43.9 °F /  6.6 °C 40.8 °F /  4.9 °C 29.8 in /  1009.4 hPa Calm     89 % 0 in /  0.0 mm
05:52 43.5 °F /  6.4 °C 41 °F /  5.0 °C 29.8 in /  1009.4 hPa Calm     91 % 0 in /  0.0 mm
05:57 43.5 °F /  6.4 °C 41 °F /  5.0 °C 29.8 in /  1009.4 hPa Calm     91 % 0 in /  0.0 mm
06:02 43.5 °F /  6.4 °C 41.4 °F /  5.2 °C 29.8 in /  1009.4 hPa NNE 1 mph /  1.6 km/h 3 mph /  4.8 km/h 92 % 0 in /  0.0 mm
06:07 44.1 °F /  6.7 °C 41.9 °F /  5.5 °C 29.8 in /  1009.4 hPa NE 1 mph /  1.6 km/h 3 mph /  4.8 km/h 92 % 0 in /  0.0 mm
06:12 44.4 °F /  6.9 °C 41.7 °F /  5.4 °C 29.8 in /  1009.0 hPa NE 1 mph /  1.6 km/h 3 mph /  4.8 km/h 90 % 0 in /  0.0 mm
06:17 44.4 °F /  6.9 °C 41.7 °F /  5.4 °C 29.8 in /  1009.0 hPa Calm   2 mph /  3.2 km/h 90 % 0 in /  0.0 mm
06:22 44.1 °F /  6.7 °C 41.4 °F /  5.2 °C 29.8 in /  1009.0 hPa Calm   2 mph /  3.2 km/h 90 % 0 in /  0.0 mm
06:27 44.1 °F /  6.7 °C 41.4 °F /  5.2 °C 29.8 in /  1009.0 hPa Calm   1 mph /  1.6 km/h 90 % 0 in /  0.0 mm
06:32 44.1 °F /  6.7 °C 41.4 °F /  5.2 °C 29.8 in /  1009.0 hPa Calm   1 mph /  1.6 km/h 90 % 0 in /  0.0 mm
06:37 43.9 °F /  6.6 °C 41.2 °F /  5.1 °C 29.8 in /  1008.7 hPa Calm     90 % 0 in /  0.0 mm
06:42 43.9 °F /  6.6 °C 41.2 °F /  5.1 °C 29.8 in /  1008.7 hPa Calm     90 % 0 in /  0.0 mm
06:47 43.5 °F /  6.4 °C 40.8 °F /  4.9 °C 29.8 in /  1008.7 hPa Calm     90 % 0 in /  0.0 mm
06:57 43.7 °F /  6.5 °C 41.5 °F /  5.3 °C 29.8 in /  1008.7 hPa Calm     92 % 0 in /  0.0 mm
07:02 43.9 °F /  6.6 °C 41.4 °F /  5.2 °C 29.8 in /  1008.7 hPa Calm     91 % 0 in /  0.0 mm
07:07 43.9 °F /  6.6 °C 41.4 °F /  5.2 °C 29.8 in /  1008.7 hPa Calm     91 % 0 in /  0.0 mm
07:12 43.9 °F /  6.6 °C 41.2 °F /  5.1 °C 29.8 in /  1008.7 hPa Calm     90 % 0 in /  0.0 mm
07:17 43.5 °F /  6.4 °C 41 °F /  5.0 °C 29.8 in /  1008.7 hPa Calm     91 % 0 in /  0.0 mm
07:22 43.5 °F /  6.4 °C 41 °F /  5.0 °C 29.8 in /  1008.7 hPa Calm     91 % 0 in /  0.0 mm
07:27 43.7 °F /  6.5 °C 41.2 °F /  5.1 °C 29.8 in /  1008.7 hPa Calm     91 % 0 in /  0.0 mm
07:32 43.9 °F /  6.6 °C 41.4 °F /  5.2 °C 29.8 in /  1008.7 hPa Calm     91 % 0 in /  0.0 mm
07:37 43.5 °F /  6.4 °C 40.8 °F /  4.9 °C 29.8 in /  1008.4 hPa Calm     90 % 0 in /  0.0 mm
07:42 43.3 °F /  6.3 °C 40.8 °F /  4.9 °C 29.8 in /  1008.4 hPa Calm     91 % 0 in /  0.0 mm
07:47 43.5 °F /  6.4 °C 41 °F /  5.0 °C 29.8 in /  1008.4 hPa Calm     91 % 0 in /  0.0 mm
07:52 43.2 °F /  6.2 °C 40.6 °F /  4.8 °C 29.8 in /  1008.4 hPa Calm     91 % 0 in /  0.0 mm
07:57 43.5 °F /  6.4 °C 41.4 °F /  5.2 °C 29.8 in /  1008.4 hPa Calm     92 % 0 in /  0.0 mm
08:02 43.7 °F /  6.5 °C 41.2 °F /  5.1 °C 29.8 in /  1008.4 hPa Calm     91 % 0 in /  0.0 mm
08:07 43.3 °F /  6.3 °C 40.6 °F /  4.8 °C 29.8 in /  1008.4 hPa Calm     90 % 0 in /  0.0 mm
08:12 43.2 °F /  6.2 °C 40.6 °F /  4.8 °C 29.8 in /  1008.4 hPa Calm     91 % 0 in /  0.0 mm
08:17 43.3 °F /  6.3 °C 41.2 °F /  5.1 °C 29.8 in /  1008.4 hPa Calm     92 % 0 in /  0.0 mm
08:22 43.5 °F /  6.4 °C 41.4 °F /  5.2 °C 29.8 in /  1008.4 hPa Calm     92 % 0 in /  0.0 mm
08:27 43.5 °F /  6.4 °C 41 °F /  5.0 °C 29.8 in /  1008.4 hPa Calm     91 % 0 in /  0.0 mm
08:32 43.5 °F /  6.4 °C 40.8 °F /  4.9 °C 29.8 in /  1008.4 hPa Calm     90 % 0 in /  0.0 mm
08:37 43.7 °F /  6.5 °C 41.5 °F /  5.3 °C 29.8 in /  1008.4 hPa Calm     92 % 0 in /  0.0 mm
08:42 43.9 °F /  6.6 °C 41.4 °F /  5.2 °C 29.8 in /  1008.4 hPa Calm     91 % 0 in /  0.0 mm
08:47 43.9 °F /  6.6 °C 41.4 °F /  5.2 °C 29.8 in /  1008.4 hPa Calm     91 % 0 in /  0.0 mm
08:52 43.9 °F /  6.6 °C 41.4 °F /  5.2 °C 29.8 in /  1008.4 hPa Calm     91 % 0 in /  0.0 mm
08:57 43.9 °F /  6.6 °C 41.4 °F /  5.2 °C 29.8 in /  1008.0 hPa North 1 mph /  1.6 km/h 2 mph /  3.2 km/h 91 % 0 in /  0.0 mm
09:02 43.9 °F /  6.6 °C 41.4 °F /  5.2 °C 29.8 in /  1008.0 hPa North 2 mph /  3.2 km/h 2 mph /  3.2 km/h 91 % 0 in /  0.0 mm
09:07 43.5 °F /  6.4 °C 41 °F /  5.0 °C 29.8 in /  1008.0 hPa NE 1 mph /  1.6 km/h 2 mph /  3.2 km/h 91 % 0 in /  0.0 mm
09:12 43.5 °F /  6.4 °C 41 °F /  5.0 °C 29.8 in /  1008.0 hPa Calm   2 mph /  3.2 km/h 91 % 0 in /  0.0 mm
09:17 43.7 °F /  6.5 °C 41.2 °F /  5.1 °C 29.8 in /  1008.0 hPa Calm   2 mph /  3.2 km/h 91 % 0 in /  0.0 mm
09:22 43.7 °F /  6.5 °C 41.2 °F /  5.1 °C 29.8 in /  1008.0 hPa Calm   2 mph /  3.2 km/h 91 % 0 in /  0.0 mm
09:32 44.8 °F /  7.1 °C 41.7 °F /  5.4 °C 29.8 in /  1008.0 hPa Calm   1 mph /  1.6 km/h 89 % 0 in /  0.0 mm
09:37 44.2 °F /  6.8 °C 41 °F /  5.0 °C 29.8 in /  1008.0 hPa Calm   1 mph /  1.6 km/h 88 % 0 in /  0.0 mm
09:42 44.1 °F /  6.7 °C 41.5 °F /  5.3 °C 29.8 in /  1007.7 hPa SE 1 mph /  1.6 km/h 4 mph /  6.4 km/h 91 % 0 in /  0.0 mm
09:47 45 °F /  7.2 °C 42.3 °F /  5.7 °C 29.8 in /  1008.0 hPa West 3 mph /  4.8 km/h 5 mph /  8.0 km/h 90 % 0 in /  0.0 mm
09:52 44.6 °F /  7.0 °C 41.9 °F /  5.5 °C 29.8 in /  1008.0 hPa WSW 2 mph /  3.2 km/h 8 mph /  12.9 km/h 90 % 0 in /  0.0 mm
09:57 45 °F /  7.2 °C 42.3 °F /  5.7 °C 29.8 in /  1007.7 hPa Calm   8 mph /  12.9 km/h 90 % 0 in /  0.0 mm
10:02 45.7 °F /  7.6 °C 42.6 °F /  5.9 °C 29.8 in /  1008.0 hPa Calm   5 mph /  8.0 km/h 89 % 0 in /  0.0 mm
10:07 46 °F /  7.8 °C 42.6 °F /  5.9 °C 29.8 in /  1007.7 hPa SSE 1 mph /  1.6 km/h 2 mph /  3.2 km/h 88 % 0 in /  0.0 mm
10:12 46.6 °F /  8.1 °C 43 °F /  6.1 °C 29.8 in /  1007.7 hPa Calm   5 mph /  8.0 km/h 87 % 0 in /  0.0 mm
10:17 46.8 °F /  8.2 °C 43.2 °F /  6.2 °C 29.8 in /  1007.7 hPa Calm   5 mph /  8.0 km/h 87 % 0 in /  0.0 mm
10:22 46.9 °F /  8.3 °C 43.3 °F /  6.3 °C 29.8 in /  1007.7 hPa Calm   5 mph /  8.0 km/h 87 % 0 in /  0.0 mm
10:27 47.1 °F /  8.4 °C 43.5 °F /  6.4 °C 29.8 in /  1007.7 hPa SE 2 mph /  3.2 km/h 2 mph /  3.2 km/h 87 % 0 in /  0.0 mm
10:32 47.5 °F /  8.6 °C 43.5 °F /  6.4 °C 29.7 in /  1007.3 hPa Calm   2 mph /  3.2 km/h 86 % 0 in /  0.0 mm
10:37 47.7 °F /  8.7 °C 43.7 °F /  6.5 °C 29.7 in /  1007.3 hPa Calm   2 mph /  3.2 km/h 86 % 0 in /  0.0 mm
10:42 47.8 °F /  8.8 °C 43.5 °F /  6.4 °C 29.7 in /  1007.3 hPa Calm   2 mph /  3.2 km/h 85 % 0 in /  0.0 mm
10:47 48 °F /  8.9 °C 43.7 °F /  6.5 °C 29.7 in /  1007.3 hPa Calm   2 mph /  3.2 km/h 85 % 0 in /  0.0 mm
10:52 48.4 °F /  9.1 °C 44.1 °F /  6.7 °C 29.7 in /  1007.3 hPa Calm   2 mph /  3.2 km/h 85 % 0 in /  0.0 mm
10:57 48.6 °F /  9.2 °C 44.2 °F /  6.8 °C 29.7 in /  1007.3 hPa Calm   2 mph /  3.2 km/h 85 % 0 in /  0.0 mm
11:02 48.7 °F /  9.3 °C 44.4 °F /  6.9 °C 29.7 in /  1007.3 hPa Calm   2 mph /  3.2 km/h 85 % 0 in /  0.0 mm
11:07 49.1 °F /  9.5 °C 44.8 °F /  7.1 °C 29.7 in /  1007.3 hPa Calm   1 mph /  1.6 km/h 85 % 0 in /  0.0 mm
11:12 49.5 °F /  9.7 °C 44.8 °F /  7.1 °C 29.7 in /  1007.3 hPa ESE 2 mph /  3.2 km/h 2 mph /  3.2 km/h 84 % 0 in /  0.0 mm
11:17 49.8 °F /  9.9 °C 45.1 °F /  7.3 °C 29.7 in /  1007.0 hPa SSE 4 mph /  6.4 km/h 4 mph /  6.4 km/h 84 % 0 in /  0.0 mm
11:22 50.4 °F /  10.2 °C 45.3 °F /  7.4 °C 29.7 in /  1007.0 hPa SE 3 mph /  4.8 km/h 7 mph /  11.3 km/h 83 % 0 in /  0.0 mm
11:32 50.7 °F /  10.4 °C 45.5 °F /  7.5 °C 29.7 in /  1006.7 hPa SSE 2 mph /  3.2 km/h 8 mph /  12.9 km/h 82 % 0 in /  0.0 mm
11:42 51.4 °F /  10.8 °C 46.2 °F /  7.9 °C 29.7 in /  1006.7 hPa SSE 2 mph /  3.2 km/h 8 mph /  12.9 km/h 82 % 0 in /  0.0 mm
11:47 51.6 °F /  10.9 °C 46 °F /  7.8 °C 29.7 in /  1006.7 hPa South 1 mph /  1.6 km/h 6 mph /  9.7 km/h 81 % 0 in /  0.0 mm
11:52 52 °F /  11.1 °C 46.4 °F /  8.0 °C 29.7 in /  1006.7 hPa SSE 4 mph /  6.4 km/h 6 mph /  9.7 km/h 81 % 0 in /  0.0 mm
11:57 52.3 °F /  11.3 °C 46.8 °F /  8.2 °C 29.7 in /  1006.7 hPa SE 1 mph /  1.6 km/h 8 mph /  12.9 km/h 81 % 0 in /  0.0 mm
12:02 52.5 °F /  11.4 °C 46.9 °F /  8.3 °C 29.7 in /  1006.7 hPa SSE 3 mph /  4.8 km/h 8 mph /  12.9 km/h 81 % 0 in /  0.0 mm
12:07 52.5 °F /  11.4 °C 46.2 °F /  7.9 °C 29.7 in /  1006.7 hPa SE 4 mph /  6.4 km/h 8 mph /  12.9 km/h 79 % 0 in /  0.0 mm
12:12 52.9 °F /  11.6 °C 46.6 °F /  8.1 °C 29.7 in /  1006.3 hPa SE 2 mph /  3.2 km/h 9 mph /  14.5 km/h 79 % 0 in /  0.0 mm
12:17 52.9 °F /  11.6 °C 46.6 °F /  8.1 °C 29.7 in /  1006.3 hPa SSE 3 mph /  4.8 km/h 9 mph /  14.5 km/h 79 % 0 in /  0.0 mm
12:22 52.9 °F /  11.6 °C 47.3 °F /  8.5 °C 29.7 in /  1006.3 hPa ESE 2 mph /  3.2 km/h 9 mph /  14.5 km/h 81 % 0 in /  0.0 mm
12:27 53.1 °F /  11.7 °C 46.8 °F /  8.2 °C 29.7 in /  1006.0 hPa SSE 1 mph /  1.6 km/h 9 mph /  14.5 km/h 79 % 0 in /  0.0 mm
12:32 53.2 °F /  11.8 °C 47.3 °F /  8.5 °C 29.7 in /  1006.0 hPa ESE 6 mph /  9.7 km/h 7 mph /  11.3 km/h 80 % 0 in /  0.0 mm
12:37 53.2 °F /  11.8 °C 46.9 °F /  8.3 °C 29.7 in /  1005.6 hPa SE 4 mph /  6.4 km/h 10 mph /  16.1 km/h 79 % 0 in /  0.0 mm
12:42 53.6 °F /  12.0 °C 47.7 °F /  8.7 °C 29.7 in /  1005.6 hPa ESE 3 mph /  4.8 km/h 10 mph /  16.1 km/h 80 % 0 in /  0.0 mm
12:47 53.8 °F /  12.1 °C 47.5 °F /  8.6 °C 29.7 in /  1005.6 hPa SE 2 mph /  3.2 km/h 10 mph /  16.1 km/h 79 % 0 in /  0.0 mm
12:52 54.1 °F /  12.3 °C 47.8 °F /  8.8 °C 29.7 in /  1005.6 hPa SE 3 mph /  4.8 km/h 7 mph /  11.3 km/h 79 % 0 in /  0.0 mm
12:57 54.5 °F /  12.5 °C 48.2 °F /  9.0 °C 29.7 in /  1005.3 hPa SE 5 mph /  8.0 km/h 7 mph /  11.3 km/h 79 % 0 in /  0.0 mm
13:02 54.7 °F /  12.6 °C 47.7 °F /  8.7 °C 29.7 in /  1005.3 hPa SE 4 mph /  6.4 km/h 7 mph /  11.3 km/h 77 % 0 in /  0.0 mm
13:07 55 °F /  12.8 °C 48 °F /  8.9 °C 29.7 in /  1005.3 hPa SE 3 mph /  4.8 km/h 7 mph /  11.3 km/h 77 % 0 in /  0.0 mm
13:12 55.6 °F /  13.1 °C 48.6 °F /  9.2 °C 29.7 in /  1005.3 hPa SSW 6 mph /  9.7 km/h 7 mph /  11.3 km/h 77 % 0 in /  0.0 mm
13:17 56.5 °F /  13.6 °C 48.4 °F /  9.1 °C 29.7 in /  1005.3 hPa SSE 7 mph /  11.3 km/h 7 mph /  11.3 km/h 74 % 0 in /  0.0 mm
13:22 57 °F /  13.9 °C 49.1 °F /  9.5 °C 29.7 in /  1005.3 hPa SE 4 mph /  6.4 km/h 14 mph /  22.5 km/h 75 % 0 in /  0.0 mm
13:27 57.6 °F /  14.2 °C 48.6 °F /  9.2 °C 29.7 in /  1005.3 hPa South 7 mph /  11.3 km/h 14 mph /  22.5 km/h 72 % 0 in /  0.0 mm
13:32 58.3 °F /  14.6 °C 49.6 °F /  9.8 °C 29.7 in /  1005.0 hPa SSE 5 mph /  8.0 km/h 14 mph /  22.5 km/h 73 % 0 in /  0.0 mm
13:37 59.2 °F /  15.1 °C 49.5 °F /  9.7 °C 29.7 in /  1005.0 hPa SSW 7 mph /  11.3 km/h 12 mph /  19.3 km/h 70 % 0 in /  0.0 mm
13:42 59.4 °F /  15.2 °C 49.1 °F /  9.5 °C 29.7 in /  1005.0 hPa SE 10 mph /  16.1 km/h 13 mph /  20.9 km/h 69 % 0 in /  0.0 mm
13:47 59.4 °F /  15.2 °C 49.1 °F /  9.5 °C 29.7 in /  1005.0 hPa SSW 12 mph /  19.3 km/h 14 mph /  22.5 km/h 69 % 0 in /  0.0 mm
13:52 59.4 °F /  15.2 °C 49.6 °F /  9.8 °C 29.7 in /  1005.0 hPa South 5 mph /  8.0 km/h 16 mph /  25.7 km/h 70 % 0 in /  0.0 mm
13:57 59.4 °F /  15.2 °C 49.1 °F /  9.5 °C 29.7 in /  1004.6 hPa SE 4 mph /  6.4 km/h 16 mph /  25.7 km/h 69 % 0 in /  0.0 mm
14:02 59.5 °F /  15.3 °C 48.9 °F /  9.4 °C 29.7 in /  1004.6 hPa South 4 mph /  6.4 km/h 16 mph /  25.7 km/h 68 % 0 in /  0.0 mm
14:07 59.5 °F /  15.3 °C 49.3 °F /  9.6 °C 29.7 in /  1004.6 hPa SSE 6 mph /  9.7 km/h 12 mph /  19.3 km/h 69 % 0 in /  0.0 mm
14:12 59.7 °F /  15.4 °C 49.5 °F /  9.7 °C 29.7 in /  1004.6 hPa SSE 4 mph /  6.4 km/h 12 mph /  19.3 km/h 69 % 0 in /  0.0 mm
14:17 59.5 °F /  15.3 °C 48.9 °F /  9.4 °C 29.7 in /  1004.6 hPa SSE 4 mph /  6.4 km/h 12 mph /  19.3 km/h 68 % 0 in /  0.0 mm
14:22 59.4 °F /  15.2 °C 49.1 °F /  9.5 °C 29.7 in /  1004.6 hPa SSE 2 mph /  3.2 km/h 11 mph /  17.7 km/h 69 % 0 in /  0.0 mm
14:27 59.4 °F /  15.2 °C 50 °F /  10.0 °C 29.7 in /  1004.6 hPa South 4 mph /  6.4 km/h 11 mph /  17.7 km/h 71 % 0 in /  0.0 mm
14:32 59.2 °F /  15.1 °C 49.1 °F /  9.5 °C 29.7 in /  1004.6 hPa South 8 mph /  12.9 km/h 11 mph /  17.7 km/h 69 % 0 in /  0.0 mm
14:37 59 °F /  15.0 °C 48.9 °F /  9.4 °C 29.7 in /  1004.6 hPa South 5 mph /  8.0 km/h 12 mph /  19.3 km/h 69 % 0 in /  0.0 mm
14:42 59 °F /  15.0 °C 48.4 °F /  9.1 °C 29.7 in /  1004.6 hPa South 8 mph /  12.9 km/h 12 mph /  19.3 km/h 68 % 0 in /  0.0 mm
14:47 59 °F /  15.0 °C 49.6 °F /  9.8 °C 29.7 in /  1004.6 hPa SSW 8 mph /  12.9 km/h 13 mph /  20.9 km/h 71 % 0 in /  0.0 mm
14:52 58.8 °F /  14.9 °C 49.5 °F /  9.7 °C 29.7 in /  1004.3 hPa SSW 3 mph /  4.8 km/h 13 mph /  20.9 km/h 71 % 0 in /  0.0 mm
14:57 58.8 °F /  14.9 °C 49.5 °F /  9.7 °C 29.7 in /  1004.3 hPa SSW 4 mph /  6.4 km/h 13 mph /  20.9 km/h 71 % 0 in /  0.0 mm
15:02 58.8 °F /  14.9 °C 49.5 °F /  9.7 °C 29.7 in /  1004.6 hPa SSW 10 mph /  16.1 km/h 12 mph /  19.3 km/h 71 % 0 in /  0.0 mm
15:07 58.5 °F /  14.7 °C 48.4 °F /  9.1 °C 29.7 in /  1004.3 hPa SW 15 mph /  24.1 km/h 17 mph /  27.4 km/h 69 % 0 in /  0.0 mm
15:12 57.7 °F /  14.3 °C 48.7 °F /  9.3 °C 29.7 in /  1004.3 hPa SSW 9 mph /  14.5 km/h 17 mph /  27.4 km/h 72 % 0 in /  0.0 mm
15:17 57.2 °F /  14.0 °C 48.9 °F /  9.4 °C 29.7 in /  1004.3 hPa SSW 5 mph /  8.0 km/h 17 mph /  27.4 km/h 74 % 0 in /  0.0 mm
15:22 56.8 °F /  13.8 °C 48.6 °F /  9.2 °C 29.7 in /  1004.3 hPa SSW 3 mph /  4.8 km/h 16 mph /  25.7 km/h 74 % 0 in /  0.0 mm
15:27 56.8 °F /  13.8 °C 48.9 °F /  9.4 °C 29.7 in /  1004.3 hPa SSW 3 mph /  4.8 km/h 14 mph /  22.5 km/h 75 % 0 in /  0.0 mm
15:32 56.7 °F /  13.7 °C 49.5 °F /  9.7 °C 29.7 in /  1004.3 hPa SSW 2 mph /  3.2 km/h 11 mph /  17.7 km/h 77 % 0 in /  0.0 mm
15:37 56.5 °F /  13.6 °C 49.3 °F /  9.6 °C 29.7 in /  1004.3 hPa SSW 4 mph /  6.4 km/h 8 mph /  12.9 km/h 77 % 0 in /  0.0 mm
15:42 56.7 °F /  13.7 °C 49.1 °F /  9.5 °C 29.7 in /  1004.3 hPa SE 4 mph /  6.4 km/h 8 mph /  12.9 km/h 76 % 0 in /  0.0 mm
15:47 56.8 °F /  13.8 °C 49.6 °F /  9.8 °C 29.7 in /  1004.3 hPa SE 1 mph /  1.6 km/h 5 mph /  8.0 km/h 77 % 0 in /  0.0 mm
15:52 57 °F /  13.9 °C 49.8 °F /  9.9 °C 29.7 in /  1004.3 hPa SSE 3 mph /  4.8 km/h 5 mph /  8.0 km/h 77 % 0 in /  0.0 mm
15:57 57 °F /  13.9 °C 49.5 °F /  9.7 °C 29.7 in /  1004.3 hPa SSE 2 mph /  3.2 km/h 6 mph /  9.7 km/h 76 % 0 in /  0.0 mm
16:02 57 °F /  13.9 °C 49.5 °F /  9.7 °C 29.7 in /  1004.3 hPa SSW 2 mph /  3.2 km/h 6 mph /  9.7 km/h 76 % 0 in /  0.0 mm
16:07 57 °F /  13.9 °C 49.8 °F /  9.9 °C 29.7 in /  1004.3 hPa SSW 3 mph /  4.8 km/h 6 mph /  9.7 km/h 77 % 0 in /  0.0 mm
16:12 56.8 °F /  13.8 °C 49.6 °F /  9.8 °C 29.7 in /  1004.3 hPa SSE 3 mph /  4.8 km/h 6 mph /  9.7 km/h 77 % 0 in /  0.0 mm
16:17 56.8 °F /  13.8 °C 49.6 °F /  9.8 °C 29.7 in /  1004.3 hPa SSE 3 mph /  4.8 km/h 7 mph /  11.3 km/h 77 % 0 in /  0.0 mm
16:22 56.7 °F /  13.7 °C 49.5 °F /  9.7 °C 29.7 in /  1004.3 hPa SSW 3 mph /  4.8 km/h 7 mph /  11.3 km/h 77 % 0 in /  0.0 mm
16:27 56.5 °F /  13.6 °C 49.6 °F /  9.8 °C 29.7 in /  1004.3 hPa SSW 3 mph /  4.8 km/h 7 mph /  11.3 km/h 78 % 0 in /  0.0 mm
16:32 56.1 °F /  13.4 °C 49.3 °F /  9.6 °C 29.7 in /  1004.3 hPa South 4 mph /  6.4 km/h 7 mph /  11.3 km/h 78 % 0 in /  0.0 mm
16:42 55.8 °F /  13.2 °C 49.3 °F /  9.6 °C 29.7 in /  1004.3 hPa South 2 mph /  3.2 km/h 5 mph /  8.0 km/h 79 % 0 in /  0.0 mm
16:47 55.6 °F /  13.1 °C 49.1 °F /  9.5 °C 29.7 in /  1004.3 hPa SSW 4 mph /  6.4 km/h 6 mph /  9.7 km/h 79 % 0 in /  0.0 mm
16:52 55.8 °F /  13.2 °C 48.7 °F /  9.3 °C 29.7 in /  1004.3 hPa SSE 4 mph /  6.4 km/h 8 mph /  12.9 km/h 77 % 0 in /  0.0 mm
16:57 55.8 °F /  13.2 °C 48.7 °F /  9.3 °C 29.7 in /  1004.6 hPa SSW 5 mph /  8.0 km/h 12 mph /  19.3 km/h 77 % 0 in /  0.0 mm
17:02 55.6 °F /  13.1 °C 48.9 °F /  9.4 °C 29.7 in /  1004.6 hPa SE 5 mph /  8.0 km/h 12 mph /  19.3 km/h 78 % 0 in /  0.0 mm
17:07 55.4 °F /  13.0 °C 48.4 °F /  9.1 °C 29.7 in /  1004.6 hPa South 5 mph /  8.0 km/h 12 mph /  19.3 km/h 77 % 0 in /  0.0 mm
17:12 55.4 °F /  13.0 °C 48.4 °F /  9.1 °C 29.7 in /  1004.6 hPa SSE 6 mph /  9.7 km/h 8 mph /  12.9 km/h 77 % 0 in /  0.0 mm
17:17 55.2 °F /  12.9 °C 48.2 °F /  9.0 °C 29.7 in /  1004.6 hPa SSE 2 mph /  3.2 km/h 9 mph /  14.5 km/h 77 % 0 in /  0.0 mm
17:22 55 °F /  12.8 °C 48 °F /  8.9 °C 29.7 in /  1004.3 hPa SSE 2 mph /  3.2 km/h 9 mph /  14.5 km/h 77 % 0 in /  0.0 mm
17:27 55 °F /  12.8 °C 48 °F /  8.9 °C 29.7 in /  1004.3 hPa ESE 2 mph /  3.2 km/h 8 mph /  12.9 km/h 77 % 0 in /  0.0 mm
17:32 54.9 °F /  12.7 °C 48.2 °F /  9.0 °C 29.7 in /  1004.3 hPa SSE 2 mph /  3.2 km/h 8 mph /  12.9 km/h 78 % 0 in /  0.0 mm
17:37 54.7 °F /  12.6 °C 48 °F /  8.9 °C 29.7 in /  1004.3 hPa SE 4 mph /  6.4 km/h 8 mph /  12.9 km/h 78 % 0 in /  0.0 mm
17:42 54.7 °F /  12.6 °C 48 °F /  8.9 °C 29.7 in /  1004.3 hPa SE 2 mph /  3.2 km/h 10 mph /  16.1 km/h 78 % 0 in /  0.0 mm
17:47 54.7 °F /  12.6 °C 47.7 °F /  8.7 °C 29.7 in /  1004.3 hPa SE 2 mph /  3.2 km/h 10 mph /  16.1 km/h 77 % 0 in /  0.0 mm
17:52 54.7 °F /  12.6 °C 47.7 °F /  8.7 °C 29.7 in /  1004.3 hPa SSW 2 mph /  3.2 km/h 10 mph /  16.1 km/h 77 % 0 in /  0.0 mm
17:57 54.7 °F /  12.6 °C 48 °F /  8.9 °C 29.7 in /  1004.3 hPa SE 2 mph /  3.2 km/h 9 mph /  14.5 km/h 78 % 0 in /  0.0 mm
18:02 54.5 °F /  12.5 °C 47.8 °F /  8.8 °C 29.7 in /  1004.3 hPa South 2 mph /  3.2 km/h 9 mph /  14.5 km/h 78 % 0 in /  0.0 mm
18:07 54.3 °F /  12.4 °C 47.7 °F /  8.7 °C 29.7 in /  1004.3 hPa South 2 mph /  3.2 km/h 9 mph /  14.5 km/h 78 % 0 in /  0.0 mm
18:12 54.3 °F /  12.4 °C 47.7 °F /  8.7 °C 29.7 in /  1004.3 hPa ESE 2 mph /  3.2 km/h 9 mph /  14.5 km/h 78 % 0 in /  0.0 mm
18:17 54.1 °F /  12.3 °C 47.5 °F /  8.6 °C 29.7 in /  1004.3 hPa South 2 mph /  3.2 km/h 7 mph /  11.3 km/h 78 % 0 in /  0.0 mm
18:27 54.1 °F /  12.3 °C 47.8 °F /  8.8 °C 29.7 in /  1004.6 hPa South 4 mph /  6.4 km/h 9 mph /  14.5 km/h 79 % 0 in /  0.0 mm
18:32 54.1 °F /  12.3 °C 47.8 °F /  8.8 °C 29.7 in /  1004.6 hPa South 9 mph /  14.5 km/h 9 mph /  14.5 km/h 79 % 0 in /  0.0 mm
18:37 54.1 °F /  12.3 °C 47.8 °F /  8.8 °C 29.7 in /  1005.0 hPa SSW 8 mph /  12.9 km/h 15 mph /  24.1 km/h 79 % 0 in /  0.0 mm
18:42 54.1 °F /  12.3 °C 47.8 °F /  8.8 °C 29.7 in /  1005.0 hPa SSW 7 mph /  11.3 km/h 16 mph /  25.7 km/h 79 % 0 in /  0.0 mm
18:47 54.1 °F /  12.3 °C 47.8 °F /  8.8 °C 29.7 in /  1005.0 hPa SSW 8 mph /  12.9 km/h 16 mph /  25.7 km/h 79 % 0 in /  0.0 mm
18:52 54 °F /  12.2 °C 48 °F /  8.9 °C 29.7 in /  1005.0 hPa SSW 8 mph /  12.9 km/h 16 mph /  25.7 km/h 80 % 0 in /  0.0 mm
18:57 53.4 °F /  11.9 °C 48 °F /  8.9 °C 29.7 in /  1005.0 hPa SSW 8 mph /  12.9 km/h 15 mph /  24.1 km/h 82 % 0 in /  0.0 mm
19:02 53.1 °F /  11.7 °C 48 °F /  8.9 °C 29.7 in /  1005.3 hPa SW 6 mph /  9.7 km/h 14 mph /  22.5 km/h 83 % 0 in /  0.0 mm
19:12 52.9 °F /  11.6 °C 48.6 °F /  9.2 °C 29.7 in /  1005.0 hPa SW 9 mph /  14.5 km/h 15 mph /  24.1 km/h 85 % 0 in /  0.0 mm
19:17 53.1 °F /  11.7 °C 48.7 °F /  9.3 °C 29.7 in /  1005.3 hPa WSW 5 mph /  8.0 km/h 15 mph /  24.1 km/h 85 % 0 in /  0.0 mm
19:22 52.9 °F /  11.6 °C 48.7 °F /  9.3 °C 29.7 in /  1005.3 hPa SW 6 mph /  9.7 km/h 13 mph /  20.9 km/h 86 % 0.01 in /  0.3 mm
19:27 52.7 °F /  11.5 °C 48.9 °F /  9.4 °C 29.7 in /  1005.0 hPa SSW 5 mph /  8.0 km/h 12 mph /  19.3 km/h 87 % 0.01 in /  0.3 mm
19:32 52.5 °F /  11.4 °C 48.7 °F /  9.3 °C 29.7 in /  1005.0 hPa SW 2 mph /  3.2 km/h 11 mph /  17.7 km/h 87 % 0.01 in /  0.3 mm
19:37 52.3 °F /  11.3 °C 48.9 °F /  9.4 °C 29.7 in /  1005.0 hPa SW 2 mph /  3.2 km/h 9 mph /  14.5 km/h 88 % 0.01 in /  0.3 mm
19:42 52.3 °F /  11.3 °C 48.9 °F /  9.4 °C 29.7 in /  1005.0 hPa WSW 3 mph /  4.8 km/h 9 mph /  14.5 km/h 88 % 0.01 in /  0.3 mm
19:47 52.3 °F /  11.3 °C 48.9 °F /  9.4 °C 29.7 in /  1005.0 hPa SW 5 mph /  8.0 km/h 6 mph /  9.7 km/h 88 % 0.01 in /  0.3 mm
19:52 52.2 °F /  11.2 °C 48.7 °F /  9.3 °C 29.7 in /  1005.0 hPa SW 2 mph /  3.2 km/h 6 mph /  9.7 km/h 88 % 0.01 in /  0.3 mm
19:57 52 °F /  11.1 °C 48.9 °F /  9.4 °C 29.7 in /  1005.0 hPa Calm   6 mph /  9.7 km/h 89 % 0.01 in /  0.3 mm
20:02 52 °F /  11.1 °C 48.9 °F /  9.4 °C 29.7 in /  1005.0 hPa Calm   6 mph /  9.7 km/h 89 % 0.01 in /  0.3 mm
20:07 51.4 °F /  10.8 °C 48.4 °F /  9.1 °C 29.7 in /  1005.0 hPa Calm   3 mph /  4.8 km/h 89 % 0.01 in /  0.3 mm
20:12 51.3 °F /  10.7 °C 48.4 °F /  9.1 °C 29.7 in /  1005.0 hPa SSE 1 mph /  1.6 km/h 2 mph /  3.2 km/h 90 % 0.01 in /  0.3 mm
20:17 51.1 °F /  10.6 °C 48.2 °F /  9.0 °C 29.7 in /  1005.0 hPa SSE 1 mph /  1.6 km/h 2 mph /  3.2 km/h 90 % 0.01 in /  0.3 mm
20:22 51.1 °F /  10.6 °C 48.6 °F /  9.2 °C 29.7 in /  1005.0 hPa Calm   2 mph /  3.2 km/h 91 % 0 in /  0.0 mm
20:27 50.7 °F /  10.4 °C 48.2 °F /  9.0 °C 29.7 in /  1005.3 hPa SSW 1 mph /  1.6 km/h 1 mph /  1.6 km/h 91 % 0 in /  0.0 mm
20:32 50.5 °F /  10.3 °C 48.4 °F /  9.1 °C 29.7 in /  1005.3 hPa South 2 mph /  3.2 km/h 2 mph /  3.2 km/h 92 % 0 in /  0.0 mm
20:37 50.7 °F /  10.4 °C 48.2 °F /  9.0 °C 29.7 in /  1005.3 hPa SW 3 mph /  4.8 km/h 6 mph /  9.7 km/h 91 % 0.02 in /  0.5 mm
20:42 51.1 °F /  10.6 °C 48.6 °F /  9.2 °C 29.7 in /  1005.6 hPa SSW 8 mph /  12.9 km/h 12 mph /  19.3 km/h 91 % 0.02 in /  0.5 mm
20:47 51.3 °F /  10.7 °C 48.7 °F /  9.3 °C 29.7 in /  1005.6 hPa SW 12 mph /  19.3 km/h 12 mph /  19.3 km/h 91 % 0.03 in /  0.8 mm
20:52 51.4 °F /  10.8 °C 48.9 °F /  9.4 °C 29.7 in /  1005.6 hPa SW 4 mph /  6.4 km/h 15 mph /  24.1 km/h 91 % 0.03 in /  0.8 mm
20:57 51.3 °F /  10.7 °C 48.4 °F /  9.1 °C 29.7 in /  1005.6 hPa WSW 10 mph /  16.1 km/h 15 mph /  24.1 km/h 90 % 0.03 in /  0.8 mm
21:02 51.3 °F /  10.7 °C 48.4 °F /  9.1 °C 29.7 in /  1005.6 hPa SW 7 mph /  11.3 km/h 15 mph /  24.1 km/h 90 % 0.03 in /  0.8 mm
21:07 51.1 °F /  10.6 °C 48.2 °F /  9.0 °C 29.7 in /  1005.6 hPa SW 10 mph /  16.1 km/h 13 mph /  20.9 km/h 90 % 0.03 in /  0.8 mm
21:12 50.7 °F /  10.4 °C 47.8 °F /  8.8 °C 29.7 in /  1005.6 hPa SW 9 mph /  14.5 km/h 11 mph /  17.7 km/h 90 % 0.03 in /  0.8 mm
21:17 50.5 °F /  10.3 °C 48 °F /  8.9 °C 29.7 in /  1006.0 hPa SSW 8 mph /  12.9 km/h 13 mph /  20.9 km/h 91 % 0.03 in /  0.8 mm
21:22 50.4 °F /  10.2 °C 47.5 °F /  8.6 °C 29.7 in /  1006.0 hPa SW 18 mph /  29.0 km/h 21 mph /  33.8 km/h 90 % 0.03 in /  0.8 mm
21:32 49.8 °F /  9.9 °C 46.9 °F /  8.3 °C 29.7 in /  1006.3 hPa WSW 4 mph /  6.4 km/h 21 mph /  33.8 km/h 90 % 0.03 in /  0.8 mm
21:42 49.5 °F /  9.7 °C 46.9 °F /  8.3 °C 29.7 in /  1006.3 hPa WSW 10 mph /  16.1 km/h 21 mph /  33.8 km/h 91 % 0.01 in /  0.3 mm
21:47 49.3 °F /  9.6 °C 46.8 °F /  8.2 °C 29.7 in /  1006.3 hPa WSW 7 mph /  11.3 km/h 17 mph /  27.4 km/h 91 % 0 in /  0.0 mm
21:52 48.9 °F /  9.4 °C 46.8 °F /  8.2 °C 29.7 in /  1006.3 hPa SW 10 mph /  16.1 km/h 17 mph /  27.4 km/h 92 % 0.01 in /  0.3 mm
21:57 48.7 °F /  9.3 °C 46.6 °F /  8.1 °C 29.7 in /  1006.3 hPa WSW 8 mph /  12.9 km/h 16 mph /  25.7 km/h 92 % 0.01 in /  0.3 mm
22:02 48.6 °F /  9.2 °C 46.4 °F /  8.0 °C 29.7 in /  1006.0 hPa SSW 3 mph /  4.8 km/h 14 mph /  22.5 km/h 92 % 0.02 in /  0.5 mm
22:07 48.4 °F /  9.1 °C 46.4 °F /  8.0 °C 29.7 in /  1006.0 hPa SW 6 mph /  9.7 km/h 14 mph /  22.5 km/h 93 % 0.03 in /  0.8 mm
22:12 48 °F /  8.9 °C 46 °F /  7.8 °C 29.7 in /  1006.3 hPa WSW 10 mph /  16.1 km/h 12 mph /  19.3 km/h 93 % 0.04 in /  1.0 mm
22:17 48 °F /  8.9 °C 46 °F /  7.8 °C 29.7 in /  1006.7 hPa SW 5 mph /  8.0 km/h 14 mph /  22.5 km/h 93 % 0.04 in /  1.0 mm
22:22 47.8 °F /  8.8 °C 45.9 °F /  7.7 °C 29.7 in /  1006.7 hPa SW 8 mph /  12.9 km/h 14 mph /  22.5 km/h 93 % 0.04 in /  1.0 mm
22:27 47.8 °F /  8.8 °C 45.9 °F /  7.7 °C 29.7 in /  1007.0 hPa SW 9 mph /  14.5 km/h 16 mph /  25.7 km/h 93 % 0.04 in /  1.0 mm
22:32 47.8 °F /  8.8 °C 45.9 °F /  7.7 °C 29.7 in /  1007.0 hPa WSW 7 mph /  11.3 km/h 16 mph /  25.7 km/h 93 % 0.05 in /  1.3 mm
22:37 47.7 °F /  8.7 °C 45.7 °F /  7.6 °C 29.7 in /  1007.0 hPa SW 4 mph /  6.4 km/h 16 mph /  25.7 km/h 93 % 0.05 in /  1.3 mm
22:42 47.7 °F /  8.7 °C 46 °F /  7.8 °C 29.7 in /  1007.0 hPa SW 8 mph /  12.9 km/h 13 mph /  20.9 km/h 94 % 0.05 in /  1.3 mm
22:47 47.5 °F /  8.6 °C 45.9 °F /  7.7 °C 29.7 in /  1007.0 hPa SW 12 mph /  19.3 km/h 13 mph /  20.9 km/h 94 % 0.06 in /  1.5 mm
22:52 47.5 °F /  8.6 °C 45.5 °F /  7.5 °C 29.7 in /  1007.0 hPa WSW 10 mph /  16.1 km/h 13 mph /  20.9 km/h 93 % 0.05 in /  1.3 mm
22:57 47.3 °F /  8.5 °C 45.3 °F /  7.4 °C 29.7 in /  1007.0 hPa SW 7 mph /  11.3 km/h 13 mph /  20.9 km/h 93 % 0.04 in /  1.0 mm
23:02 47.1 °F /  8.4 °C 45.1 °F /  7.3 °C 29.7 in /  1007.0 hPa SW 5 mph /  8.0 km/h 13 mph /  20.9 km/h 93 % 0.03 in /  0.8 mm
23:07 47.1 °F /  8.4 °C 45.1 °F /  7.3 °C 29.7 in /  1007.0 hPa SW 8 mph /  12.9 km/h 13 mph /  20.9 km/h 93 % 0.02 in /  0.5 mm
23:12 46.9 °F /  8.3 °C 45.3 °F /  7.4 °C 29.7 in /  1007.0 hPa WSW 9 mph /  14.5 km/h 13 mph /  20.9 km/h 94 % 0.02 in /  0.5 mm
23:17 46.9 °F /  8.3 °C 45.3 °F /  7.4 °C 29.7 in /  1007.3 hPa SSW 7 mph /  11.3 km/h 13 mph /  20.9 km/h 94 % 0.02 in /  0.5 mm
23:22 46.8 °F /  8.2 °C 45.1 °F /  7.3 °C 29.7 in /  1007.3 hPa SW 8 mph /  12.9 km/h 13 mph /  20.9 km/h 94 % 0.02 in /  0.5 mm
23:27 46.8 °F /  8.2 °C 45.1 °F /  7.3 °C 29.7 in /  1007.3 hPa SSW 4 mph /  6.4 km/h 12 mph /  19.3 km/h 94 % 0.01 in /  0.3 mm
23:32 46.8 °F /  8.2 °C 45.1 °F /  7.3 °C 29.7 in /  1007.3 hPa SW 7 mph /  11.3 km/h 12 mph /  19.3 km/h 94 % 0.01 in /  0.3 mm
23:37 46.6 °F /  8.1 °C 45 °F /  7.2 °C 29.7 in /  1007.3 hPa SW 8 mph /  12.9 km/h 13 mph /  20.9 km/h 94 % 0.01 in /  0.3 mm
23:42 46.6 °F /  8.1 °C 45 °F /  7.2 °C 29.7 in /  1007.3 hPa South 6 mph /  9.7 km/h 13 mph /  20.9 km/h 94 % 0.01 in /  0.3 mm
23:47 46.6 °F /  8.1 °C 45 °F /  7.2 °C 29.7 in /  1007.3 hPa SSW 4 mph /  6.4 km/h 12 mph /  19.3 km/h 94 % 0.01 in /  0.3 mm
23:57 46.2 °F /  7.9 °C 44.6 °F /  7.0 °C 29.7 in /  1007.3 hPa SW 4 mph /  6.4 km/h 9 mph /  14.5 km/h 94 % 0.01 in /  0.3 mm
Meteo18
Compliments of Weather Underground - 4 mb

Script developed by  Jim McMurry - jmcmurry@mwt.net Adapted for the template by  Wim van der Kuil - Leuven-Template.eu

You find our weather info also at:

European Weather Network

Weather Underground

Equipment we use:

Weather-station
Davis Vue

Weather-program
Meteohub

Weather-server
Raspberry PI 2 B+

Provider
1 and 1

Davis Vue

Meteohub

Raspberry PI 2 B+

1 and 1